< < Back
Terminal Aerodrome Forecast


Current Version              Previous Versions:   1  2  3  4  5  6  7  8  9  

Terminal Aerodrome Forecast

838
FTUS44 KMOB 300547
TAFPNS
TAF
KPNS 300547Z 3006/3106 05008KT P6SM FEW060
     FM301500 06008KT P6SM FEW250
     FM302100 07008KT P6SM VCTS SCT050CB SCT250=

Latest METAR

430
SAUS70 KWBC 300700 RRK
MTRPNS
METAR KPNS 300653Z AUTO 06005KT 10SM CLR 27/22 A2994 RMK AO2 SLP141
T02670222


USA.gov is the U.S. government's official web portal to all federal, state and local government web resources and services.